Time;durP1;ratioP1;P1;durP2;ratioP2;P2;SDS_P1;SDS_P2;PMS_P1;PMS_P2;Temp;Humidity;BMP_temperature;BMP_pressure;BME280_temperature;BME280_humidity;BME280_pressure;Samples;Min_cycle;Max_cycle;Signal;HPM_P1;HPM_P2
2021/03/30 00:02:23;;;;;;;4.25;3.58;;;14.70;97.50;;;;;;4971352;28;20254;-69
2021/03/30 00:04:49;;;;;;;3.28;2.97;;;14.70;97.30;;;;;;4982776;28;20258;-69
2021/03/30 00:07:15;;;;;;;3.65;3.33;;;14.60;97.40;;;;;;4979633;28;20208;-69
2021/03/30 00:09:42;;;;;;;4.97;3.90;;;14.60;97.50;;;;;;4975663;28;20225;-69
2021/03/30 00:12:10;;;;;;;3.65;3.17;;;14.60;97.50;;;;;;4976217;28;20219;-69
2021/03/30 00:14:36;;;;;;;4.68;3.70;;;14.60;97.50;;;;;;4988002;28;20681;-69
2021/03/30 00:17:02;;;;;;;7.15;3.55;;;14.60;97.60;;;;;;4980523;28;20258;-69
2021/03/30 00:19:29;;;;;;;3.40;3.10;;;14.60;97.60;;;;;;4986689;28;20201;-69
2021/03/30 00:21:55;;;;;;;4.38;3.42;;;14.50;97.70;;;;;;4980509;28;20258;-69
2021/03/30 00:24:21;;;;;;;4.88;3.17;;;14.50;97.70;;;;;;4968808;28;20201;-69
2021/03/30 00:26:48;;;;;;;5.03;3.35;;;14.50;97.70;;;;;;4969318;28;20206;-69
2021/03/30 00:29:15;;;;;;;5.25;3.60;;;14.50;97.70;;;;;;4970382;28;20205;-69
2021/03/30 00:31:41;;;;;;;6.45;3.90;;;14.40;97.70;;;;;;4967956;28;20255;-69
2021/03/30 00:34:07;;;;;;;3.78;3.40;;;14.50;97.80;;;;;;4977326;28;20206;-69
2021/03/30 00:36:33;;;;;;;4.30;3.30;;;14.40;97.70;;;;;;4969671;28;20723;-69
2021/03/30 00:38:59;;;;;;;5.13;3.03;;;14.40;97.80;;;;;;4971871;28;20196;-68
2021/03/30 00:41:26;;;;;;;4.30;2.65;;;14.40;97.80;;;;;;4980511;28;20201;-69
2021/03/30 00:43:52;;;;;;;3.20;2.53;;;14.40;97.80;;;;;;4975721;28;20201;-69
2021/03/30 00:46:20;;;;;;;3.60;3.25;;;14.40;97.90;;;;;;4979291;28;20208;-69
2021/03/30 00:48:48;;;;;;;6.45;3.55;;;14.30;97.90;;;;;;4975115;28;20213;-69
2021/03/30 00:51:15;;;;;;;4.47;3.70;;;14.30;97.90;;;;;;4975191;28;20221;-69
2021/03/30 00:53:42;;;;;;;4.40;3.13;;;14.30;98.00;;;;;;4978377;28;20209;-68
2021/03/30 00:56:08;;;;;;;3.40;2.63;;;14.30;98.00;;;;;;4975861;28;21233;-69
2021/03/30 00:58:35;;;;;;;3.97;3.33;;;14.20;98.00;;;;;;4983075;28;20201;-69
2021/03/30 01:01:01;;;;;;;3.80;3.33;;;14.30;98.10;;;;;;4979084;28;20197;-69
2021/03/30 01:03:28;;;;;;;5.40;3.63;;;14.30;98.10;;;;;;4980499;28;20346;-69
2021/03/30 01:05:54;;;;;;;4.30;3.50;;;14.20;98.40;;;;;;4973489;28;20202;-69
2021/03/30 01:08:37;;;;;;;3.55;2.85;;;14.20;98.10;;;;;;4982504;28;20205;-69
2021/03/30 01:11:17;;;;;;;5.03;3.22;;;14.20;98.20;;;;;;4978487;28;20912;-69
2021/03/30 01:14:04;;;;;;;5.30;4.05;;;14.10;98.10;;;;;;4979990;28;20519;-70
2021/03/30 01:16:37;;;;;;;7.50;3.83;;;14.10;98.20;;;;;;4970349;28;20647;-69
2021/03/30 01:19:17;;;;;;;5.20;3.42;;;14.10;98.10;;;;;;4976353;28;20201;-69
2021/03/30 01:22:10;;;;;;;10.05;3.17;;;14.10;98.20;;;;;;4974002;28;20256;-70
2021/03/30 01:24:38;;;;;;;3.05;2.75;;;14.10;98.20;;;;;;4975916;28;20240;-70
2021/03/30 01:27:08;;;;;;;5.55;3.15;;;14.10;98.10;;;;;;4970632;28;20206;-69
2021/03/30 01:29:42;;;;;;;3.90;3.08;;;14.10;98.10;;;;;;4970526;28;20549;-69
2021/03/30 01:32:27;;;;;;;3.78;3.35;;;14.00;98.10;;;;;;4974703;28;20197;-69
2021/03/30 01:34:57;;;;;;;5.07;4.68;;;14.00;98.00;;;;;;4975639;28;20254;-70
2021/03/30 01:37:24;;;;;;;3.90;3.20;;;14.00;98.00;;;;;;4970460;28;20216;-69
2021/03/30 01:39:53;;;;;;;4.03;3.58;;;14.00;98.10;;;;;;4976180;28;20220;-69
2021/03/30 01:42:23;;;;;;;4.25;3.08;;;14.00;98.10;;;;;;4981022;28;20197;-69
2021/03/30 01:44:50;;;;;;;4.90;3.40;;;14.00;98.10;;;;;;4978007;28;20244;-69
2021/03/30 01:47:18;;;;;;;3.00;2.72;;;13.90;98.10;;;;;;4974201;28;20197;-69
2021/03/30 01:49:45;;;;;;;4.55;3.63;;;13.90;98.10;;;;;;4972989;28;20225;-69
2021/03/30 01:52:16;;;;;;;4.93;3.58;;;13.90;98.20;;;;;;4976309;28;20209;-69
2021/03/30 01:54:43;;;;;;;4.55;3.45;;;13.90;98.20;;;;;;4976136;28;20189;-69
2021/03/30 01:57:12;;;;;;;5.90;3.55;;;13.90;98.30;;;;;;4972797;28;20201;-69
2021/03/30 01:59:41;;;;;;;3.95;3.35;;;13.80;98.20;;;;;;4971178;28;20205;-69
2021/03/30 02:02:09;;;;;;;4.30;3.40;;;13.80;98.30;;;;;;4973527;28;20208;-69
2021/03/30 02:04:36;;;;;;;4.18;3.50;;;13.80;98.30;;;;;;4974080;28;20201;-69
2021/03/30 02:07:03;;;;;;;4.28;3.25;;;13.80;98.30;;;;;;4977463;28;20763;-69
2021/03/30 02:09:33;;;;;;;5.38;3.40;;;13.80;98.40;;;;;;4970276;28;20200;-69
2021/03/30 02:12:00;;;;;;;3.50;3.05;;;13.80;98.40;;;;;;4971923;28;20202;-69
2021/03/30 02:14:27;;;;;;;3.65;3.22;;;13.70;98.30;;;;;;4976476;28;20205;-69
2021/03/30 02:16:59;;;;;;;6.97;3.80;;;13.70;98.40;;;;;;4974989;28;20511;-69
2021/03/30 02:19:33;;;;;;;3.90;3.15;;;13.70;98.50;;;;;;4973502;28;20203;-69
2021/03/30 02:22:05;;;;;;;3.92;3.53;;;13.70;98.50;;;;;;4982657;28;20203;-69
2021/03/30 02:24:33;;;;;;;5.75;2.95;;;13.70;98.50;;;;;;4988811;28;20245;-69
2021/03/30 02:27:00;;;;;;;4.55;3.50;;;13.70;98.50;;;;;;4988838;28;20250;-69
2021/03/30 02:29:33;;;;;;;4.20;3.47;;;13.70;98.50;;;;;;4988709;28;20209;-69
2021/03/30 02:32:01;;;;;;;4.05;3.45;;;13.60;98.50;;;;;;4977750;28;20200;-69
2021/03/30 02:34:29;;;;;;;3.55;3.13;;;13.60;98.50;;;;;;4973908;28;20201;-70
2021/03/30 02:36:57;;;;;;;4.90;3.90;;;13.60;98.50;;;;;;4985480;28;20259;-69
2021/03/30 02:39:25;;;;;;;5.35;3.80;;;13.60;98.60;;;;;;4969838;28;20896;-69
2021/03/30 02:41:54;;;;;;;3.92;2.78;;;13.60;98.60;;;;;;4974728;28;20514;-69
2021/03/30 02:44:22;;;;;;;5.15;3.33;;;13.60;98.70;;;;;;4976381;28;20210;-68
2021/03/30 02:46:49;;;;;;;5.28;3.15;;;13.50;98.60;;;;;;4973288;28;20205;-69
2021/03/30 02:49:18;;;;;;;3.40;3.10;;;13.50;98.60;;;;;;4989313;28;20759;-68
2021/03/30 02:51:46;;;;;;;5.45;3.50;;;13.50;98.70;;;;;;4982364;28;20212;-69
2021/03/30 02:54:15;;;;;;;6.07;4.15;;;13.50;98.60;;;;;;4989367;28;20208;-69
2021/03/30 02:56:42;;;;;;;6.03;3.60;;;13.50;98.70;;;;;;4973950;28;20539;-69
2021/03/30 02:59:09;;;;;;;3.95;3.58;;;13.50;98.70;;;;;;4986584;28;20209;-69
2021/03/30 03:01:37;;;;;;;5.22;3.63;;;13.50;98.70;;;;;;4979025;28;20614;-68
2021/03/30 03:04:04;;;;;;;4.80;3.65;;;13.40;98.70;;;;;;4969629;28;20255;-68
2021/03/30 03:06:32;;;;;;;3.42;3.13;;;13.40;98.80;;;;;;4968973;28;20213;-68
2021/03/30 03:08:59;;;;;;;3.47;3.17;;;13.40;98.80;;;;;;4969276;28;20206;-69
2021/03/30 03:11:27;;;;;;;5.03;3.30;;;13.40;98.80;;;;;;4972361;28;20221;-68
2021/03/30 03:13:55;;;;;;;5.07;3.38;;;13.40;98.90;;;;;;4974201;28;20214;-69
2021/03/30 03:16:22;;;;;;;3.30;3.00;;;13.30;98.90;;;;;;4968767;28;20202;-69
2021/03/30 03:18:49;;;;;;;4.18;3.13;;;13.30;99.00;;;;;;4968434;28;20208;-69
2021/03/30 03:21:16;;;;;;;7.93;3.67;;;13.30;99.00;;;;;;4969267;28;20202;-69
2021/03/30 03:23:43;;;;;;;9.32;4.38;;;13.30;99.10;;;;;;4984553;28;20233;-68
2021/03/30 03:26:12;;;;;;;4.60;3.67;;;13.30;99.10;;;;;;4986859;28;20706;-69
2021/03/30 03:28:39;;;;;;;4.18;3.10;;;13.20;99.00;;;;;;4982036;28;20542;-69
2021/03/30 03:31:06;;;;;;;5.43;3.90;;;13.20;99.00;;;;;;4971002;28;20716;-69
2021/03/30 03:33:32;;;;;;;4.82;2.92;;;13.20;99.10;;;;;;4974062;28;20546;-69
2021/03/30 03:36:05;;;;;;;4.60;3.20;;;13.20;99.10;;;;;;4969014;28;20259;-69
2021/03/30 03:38:31;;;;;;;3.50;3.03;;;13.20;99.10;;;;;;4978335;28;20189;-69
2021/03/30 03:40:58;;;;;;;6.55;3.90;;;13.20;99.20;;;;;;4968484;28;20343;-69
2021/03/30 03:43:25;;;;;;;6.10;4.28;;;13.10;99.10;;;;;;4969895;28;20198;-69
2021/03/30 03:45:51;;;;;;;5.30;3.47;;;13.10;99.20;;;;;;4977938;28;20197;-69
2021/03/30 03:48:17;;;;;;;5.05;3.55;;;13.10;99.20;;;;;;4974948;28;20732;-69
2021/03/30 03:50:44;;;;;;;5.43;4.07;;;13.10;99.30;;;;;;4974066;28;20229;-69
2021/03/30 03:53:13;;;;;;;5.32;3.95;;;13.10;99.30;;;;;;4973128;28;20197;-70
2021/03/30 03:55:47;;;;;;;3.45;3.15;;;13.00;99.30;;;;;;4973832;28;20202;-70
2021/03/30 04:01:39;;;;;;;5.43;3.63;;;13.00;99.50;;;;;;4976229;28;20184;-68
2021/03/30 04:04:12;;;;;;;4.68;3.33;;;13.00;99.40;;;;;;4978248;28;20206;-69
2021/03/30 04:06:43;;;;;;;5.00;3.50;;;13.00;99.40;;;;;;4989090;28;20922;-69
2021/03/30 04:09:12;;;;;;;6.68;3.80;;;12.90;99.50;;;;;;4983858;28;20515;-69
2021/03/30 04:11:40;;;;;;;5.15;3.55;;;12.90;99.50;;;;;;4969567;28;20331;-69
2021/03/30 04:14:08;;;;;;;9.05;4.13;;;12.90;99.60;;;;;;4968810;28;20240;-69
2021/03/30 04:16:34;;;;;;;5.05;3.90;;;12.90;99.60;;;;;;4984129;28;20196;-69
2021/03/30 04:19:02;;;;;;;4.47;3.60;;;12.90;99.60;;;;;;4986787;28;20224;-69
2021/03/30 04:21:32;;;;;;;5.82;3.35;;;12.80;99.70;;;;;;4984902;28;20922;-69
2021/03/30 04:23:58;;;;;;;5.50;3.17;;;12.80;99.70;;;;;;4973830;28;20282;-69
2021/03/30 04:26:25;;;;;;;4.15;3.22;;;12.80;99.70;;;;;;4985783;28;20201;-69
2021/03/30 04:28:51;;;;;;;4.35;3.65;;;12.80;99.80;;;;;;4976447;28;20697;-69
2021/03/30 04:31:17;;;;;;;7.43;3.72;;;12.80;99.80;;;;;;4971352;28;20282;-69
2021/03/30 04:33:44;;;;;;;4.30;3.22;;;12.80;99.80;;;;;;4979401;28;20596;-69
2021/03/30 04:36:11;;;;;;;6.50;3.65;;;12.70;99.80;;;;;;4971996;28;20201;-69
2021/03/30 04:38:38;;;;;;;4.20;3.58;;;12.70;99.80;;;;;;4971462;28;20229;-69
2021/03/30 04:41:06;;;;;;;4.07;3.00;;;12.70;99.80;;;;;;4974491;28;20197;-69
2021/03/30 04:43:33;;;;;;;4.35;3.60;;;12.70;99.80;;;;;;4983838;28;20564;-69
2021/03/30 04:45:59;;;;;;;4.78;3.28;;;12.70;99.90;;;;;;4976054;28;20740;-69
2021/03/30 04:48:26;;;;;;;4.15;3.35;;;12.70;99.90;;;;;;4971664;28;20202;-69
2021/03/30 04:50:53;;;;;;;5.50;3.70;;;12.70;99.90;;;;;;4981612;28;20285;-69
2021/03/30 04:53:20;;;;;;;4.75;3.25;;;12.60;99.90;;;;;;4982816;28;20201;-69
2021/03/30 04:55:46;;;;;;;4.47;3.63;;;12.60;99.90;;;;;;4978374;28;20213;-69
2021/03/30 04:58:13;;;;;;;5.00;3.50;;;12.60;99.90;;;;;;4973249;28;20641;-69
2021/03/30 05:00:39;;;;;;;4.55;3.88;;;12.50;99.90;;;;;;4973577;28;20198;-70
2021/03/30 05:03:05;;;;;;;5.30;4.07;;;12.50;99.90;;;;;;4970072;28;20212;-69
2021/03/30 05:05:31;;;;;;;4.40;4.00;;;12.50;99.90;;;;;;4975281;28;20205;-70
2021/03/30 05:07:58;;;;;;;4.93;3.60;;;12.50;99.90;;;;;;4969345;28;20630;-68
2021/03/30 05:10:25;;;;;;;9.27;3.40;;;12.50;99.90;;;;;;4974600;28;20225;-68
2021/03/30 05:12:52;;;;;;;4.50;3.15;;;12.50;99.90;;;;;;4973483;28;20303;-69
2021/03/30 05:15:18;;;;;;;5.82;3.08;;;12.50;99.90;;;;;;4974309;28;20217;-68
2021/03/30 05:17:44;;;;;;;4.57;3.50;;;12.50;99.90;;;;;;4971739;28;20206;-68
2021/03/30 05:20:11;;;;;;;4.85;3.90;;;12.40;99.90;;;;;;4974999;28;20197;-68
2021/03/30 05:22:37;;;;;;;3.53;3.15;;;12.40;99.90;;;;;;4984181;28;20239;-68
2021/03/30 05:25:05;;;;;;;4.18;3.60;;;12.40;99.90;;;;;;4971023;28;20236;-68
2021/03/30 05:27:32;;;;;;;4.53;3.72;;;12.40;99.90;;;;;;4971211;28;20209;-68
2021/03/30 05:29:58;;;;;;;6.07;3.42;;;12.40;99.90;;;;;;4982562;28;20204;-68
2021/03/30 05:32:24;;;;;;;6.43;3.63;;;12.40;99.90;;;;;;4978471;28;20263;-68
2021/03/30 05:34:52;;;;;;;5.45;3.28;;;12.40;99.90;;;;;;4972271;28;20205;-68
2021/03/30 05:37:18;;;;;;;3.70;3.38;;;12.40;99.90;;;;;;4974498;28;20213;-69
2021/03/30 05:39:44;;;;;;;5.15;3.80;;;12.30;99.90;;;;;;4978474;28;20194;-68
2021/03/30 05:42:14;;;;;;;4.90;3.80;;;12.30;99.90;;;;;;4970516;28;20233;-68
2021/03/30 05:44:41;;;;;;;3.75;3.40;;;12.30;99.90;;;;;;4981837;28;20258;-68
2021/03/30 05:47:14;;;;;;;4.40;3.83;;;12.30;99.90;;;;;;4981885;28;20197;-68
2021/03/30 05:49:42;;;;;;;3.13;2.92;;;12.30;99.90;;;;;;4982268;28;20201;-68
2021/03/30 05:52:13;;;;;;;4.53;3.95;;;12.30;99.90;;;;;;4974278;28;20688;-68
2021/03/30 05:54:42;;;;;;;4.35;3.20;;;12.30;99.90;;;;;;4983291;28;20209;-68
2021/03/30 05:57:11;;;;;;;4.25;3.85;;;12.30;99.90;;;;;;4984138;28;20201;-68
2021/03/30 05:59:39;;;;;;;3.50;3.08;;;12.20;99.90;;;;;;4982555;28;20201;-68
2021/03/30 06:02:20;;;;;;;5.00;4.50;;;12.30;99.90;;;;;;4981489;28;20189;-68
2021/03/30 06:04:47;;;;;;;4.18;3.72;;;12.40;99.90;;;;;;4974989;28;20201;-68
2021/03/30 06:07:14;;;;;;;4.60;2.95;;;12.50;99.60;;;;;;4978816;28;20259;-68
2021/03/30 06:09:42;;;;;;;5.90;3.85;;;12.70;99.30;;;;;;4969939;28;20202;-68
2021/03/30 06:12:12;;;;;;;5.97;3.53;;;12.80;98.60;;;;;;4969545;28;20300;-68
2021/03/30 06:14:39;;;;;;;8.52;4.53;;;12.90;98.20;;;;;;4979346;28;20201;-68
2021/03/30 06:17:07;;;;;;;4.82;3.45;;;13.10;97.70;;;;;;4982951;28;20261;-69
2021/03/30 06:19:47;;;;;;;5.65;3.35;;;13.20;97.30;;;;;;4990150;28;20636;-68
2021/03/30 06:22:14;;;;;;;4.40;3.80;;;13.40;96.90;;;;;;4981401;28;20229;-68
2021/03/30 06:24:42;;;;;;;4.47;3.70;;;13.50;96.50;;;;;;4970471;28;20190;-68
2021/03/30 06:27:20;;;;;;;11.93;3.70;;;13.70;96.10;;;;;;4970333;28;20206;-68
2021/03/30 06:29:48;;;;;;;4.70;3.53;;;13.80;95.60;;;;;;4970412;28;20224;-68
2021/03/30 06:32:18;;;;;;;5.15;4.28;;;14.00;95.10;;;;;;4973821;28;20212;-68
2021/03/30 06:34:45;;;;;;;5.50;4.25;;;14.10;94.70;;;;;;4980222;28;20599;-68
2021/03/30 06:37:28;;;;;;;6.00;4.40;;;14.20;94.30;;;;;;4970564;28;20205;-68
2021/03/30 06:39:55;;;;;;;4.70;3.38;;;14.30;94.00;;;;;;4975862;28;20636;-67
2021/03/30 06:42:30;;;;;;;5.40;4.25;;;14.40;93.70;;;;;;4974538;28;20212;-68
2021/03/30 06:44:56;;;;;;;4.82;3.53;;;14.60;93.40;;;;;;4988540;28;20187;-68
2021/03/30 06:47:23;;;;;;;7.88;4.07;;;14.70;93.10;;;;;;4981086;28;20202;-68
2021/03/30 06:49:55;;;;;;;6.50;4.13;;;14.80;92.80;;;;;;4989526;28;20201;-68
2021/03/30 06:52:25;;;;;;;4.38;3.58;;;14.80;92.50;;;;;;4972897;28;20679;-68
2021/03/30 06:54:58;;;;;;;4.43;4.03;;;15.00;92.20;;;;;;4969778;28;20182;-67
2021/03/30 06:57:36;;;;;;;4.57;3.45;;;15.00;92.30;;;;;;4973910;28;20588;-68
2021/03/30 07:00:05;;;;;;;3.83;3.47;;;15.10;91.80;;;;;;4970612;28;20209;-68
2021/03/30 07:02:32;;;;;;;5.47;4.10;;;15.20;91.50;;;;;;4969212;28;20289;-68
2021/03/30 07:04:58;;;;;;;6.20;3.80;;;15.30;91.20;;;;;;4978731;28;20658;-68
2021/03/30 07:07:27;;;;;;;4.70;4.20;;;15.40;91.00;;;;;;4977336;28;20193;-68
2021/03/30 07:09:53;;;;;;;3.95;3.40;;;15.50;90.80;;;;;;4972387;28;20596;-69
2021/03/30 07:12:22;;;;;;;4.03;3.58;;;15.60;90.60;;;;;;4981703;28;20204;-69
2021/03/30 07:14:49;;;;;;;5.40;3.92;;;15.70;90.40;;;;;;4977069;28;20205;-69
2021/03/30 07:17:24;;;;;;;4.95;4.38;;;15.80;90.20;;;;;;4969282;28;20204;-69
2021/03/30 07:19:55;;;;;;;5.55;4.03;;;15.90;90.40;;;;;;4969786;28;20239;-68
2021/03/30 07:22:26;;;;;;;3.88;3.42;;;16.00;89.80;;;;;;4973825;28;20240;-68
2021/03/30 07:24:56;;;;;;;4.57;3.92;;;16.10;89.70;;;;;;4970454;28;20197;-68
2021/03/30 07:27:28;;;;;;;4.22;3.55;;;16.10;89.00;;;;;;4978474;28;20208;-68
2021/03/30 07:29:58;;;;;;;5.82;4.18;;;16.20;88.70;;;;;;4980952;28;20201;-68
2021/03/30 07:32:32;;;;;;;5.88;4.57;;;16.30;88.70;;;;;;4980019;28;20189;-68
2021/03/30 07:35:02;;;;;;;6.78;4.40;;;16.40;88.20;;;;;;4979516;28;20201;-68
2021/03/30 07:37:35;;;;;;;3.80;3.35;;;16.40;87.80;;;;;;4969548;28;20589;-68
2021/03/30 07:40:03;;;;;;;3.75;3.42;;;16.50;87.60;;;;;;4974859;28;20668;-70
2021/03/30 07:42:31;;;;;;;3.72;3.30;;;16.60;87.30;;;;;;4969511;28;20208;-70
2021/03/30 07:44:59;;;;;;;4.43;3.80;;;16.60;87.10;;;;;;4968839;28;20546;-69
2021/03/30 07:47:25;;;;;;;4.47;3.97;;;16.70;86.90;;;;;;4973004;28;20209;-69
2021/03/30 07:49:53;;;;;;;5.28;3.80;;;16.80;86.70;;;;;;4968904;28;20194;-69
2021/03/30 07:52:25;;;;;;;4.63;3.78;;;16.80;86.20;;;;;;4969105;28;20316;-69
2021/03/30 07:55:21;;;;;;;6.35;4.07;;;16.80;85.80;;;;;;4981441;28;20209;-68
2021/03/30 07:58:10;;;;;;;4.28;3.35;;;16.90;85.60;;;;;;4979475;28;20270;-68
2021/03/30 08:00:52;;;;;;;4.43;3.83;;;17.00;85.60;;;;;;4967531;28;20197;-69
2021/03/30 08:03:28;;;;;;;6.07;4.07;;;17.00;85.20;;;;;;4968927;28;20206;-68
2021/03/30 08:06:18;;;;;;;5.20;3.67;;;17.10;85.00;;;;;;4977785;28;20603;-69
2021/03/30 08:08:48;;;;;;;7.68;4.45;;;17.10;85.00;;;;;;4978221;28;20201;-69
2021/03/30 08:11:15;;;;;;;4.88;4.22;;;17.20;84.90;;;;;;4977217;28;20731;-69
2021/03/30 08:13:53;;;;;;;4.97;3.83;;;17.20;84.40;;;;;;4977126;28;20205;-69
2021/03/30 08:16:20;;;;;;;4.95;2.95;;;17.30;84.40;;;;;;4974555;28;20205;-69
2021/03/30 08:18:48;;;;;;;4.13;3.60;;;17.30;84.60;;;;;;4982647;28;20657;-69
2021/03/30 08:21:16;;;;;;;4.68;3.80;;;17.40;84.30;;;;;;4975181;28;20201;-69
2021/03/30 08:24:08;;;;;;;6.35;4.63;;;17.40;84.40;;;;;;4980321;28;20233;-68
2021/03/30 08:26:37;;;;;;;11.52;4.28;;;17.50;84.00;;;;;;4978064;28;20211;-69
2021/03/30 08:29:06;;;;;;;6.22;5.32;;;17.50;84.10;;;;;;4976707;28;20209;-69
2021/03/30 08:31:36;;;;;;;6.40;5.05;;;17.60;84.00;;;;;;4983105;28;20684;-68
2021/03/30 08:34:04;;;;;;;12.75;7.85;;;17.60;84.00;;;;;;4977889;28;20212;-69
2021/03/30 08:36:33;;;;;;;13.63;7.15;;;17.60;83.50;;;;;;4974673;28;20205;-69
2021/03/30 08:39:04;;;;;;;15.07;10.45;;;17.70;82.90;;;;;;4979666;28;20204;-69
2021/03/30 08:41:53;;;;;;;14.80;9.32;;;17.80;82.80;;;;;;4971340;28;20204;-69
2021/03/30 08:44:23;;;;;;;13.63;9.15;;;17.80;82.80;;;;;;4977275;28;20273;-69
2021/03/30 08:46:52;;;;;;;10.80;7.47;;;17.80;82.90;;;;;;4980687;28;20197;-69
2021/03/30 08:49:32;;;;;;;15.93;9.13;;;17.80;82.70;;;;;;4981353;28;20262;-69
2021/03/30 08:51:59;;;;;;;12.77;8.13;;;17.90;83.40;;;;;;4980590;28;20205;-69
2021/03/30 08:54:27;;;;;;;8.32;6.95;;;17.90;82.90;;;;;;4983140;28;20263;-69
2021/03/30 08:57:00;;;;;;;14.68;8.77;;;17.90;83.00;;;;;;4984217;28;20203;-69
2021/03/30 08:59:28;;;;;;;14.25;7.57;;;17.90;83.00;;;;;;4979572;28;20197;-69
2021/03/30 09:01:59;;;;;;;12.05;8.98;;;17.90;83.50;;;;;;4974773;28;20211;-69
2021/03/30 09:04:30;;;;;;;8.93;6.95;;;17.90;83.50;;;;;;5046800;28;20198;-69
2021/03/30 09:06:57;;;;;;;11.90;8.38;;;17.90;83.70;;;;;;4972113;28;20189;-69
2021/03/30 09:09:27;;;;;;;10.23;6.60;;;17.90;83.70;;;;;;4971083;28;20206;-69
2021/03/30 09:11:53;;;;;;;11.32;7.80;;;17.90;83.80;;;;;;4969518;28;20238;-69
2021/03/30 09:14:21;;;;;;;13.63;8.27;;;17.90;83.90;;;;;;4987507;28;20197;-69
2021/03/30 09:16:50;;;;;;;8.05;6.65;;;17.90;84.00;;;;;;4983981;28;20198;-70
2021/03/30 09:19:24;;;;;;;11.85;8.10;;;17.90;84.30;;;;;;4970358;28;20208;-69
2021/03/30 09:21:54;;;;;;;13.48;8.27;;;17.90;84.00;;;;;;4971077;28;20217;-71
2021/03/30 09:27:11;;;;;;;13.98;9.80;;;17.90;84.50;;;;;;4957351;28;20258;-71
2021/03/30 09:29:40;;;;;;;13.63;8.88;;;17.90;84.20;;;;;;4979733;28;20197;-71
2021/03/30 09:32:08;;;;;;;16.95;7.75;;;17.90;84.30;;;;;;4969619;28;20225;-71
2021/03/30 09:34:38;;;;;;;10.85;6.93;;;17.80;85.00;;;;;;4971960;28;20201;-71
2021/03/30 09:37:04;;;;;;;16.67;9.30;;;17.80;85.00;;;;;;4972057;28;20908;-71
2021/03/30 09:39:34;;;;;;;11.95;7.70;;;17.80;84.50;;;;;;4972232;28;20201;-70
2021/03/30 09:42:01;;;;;;;13.25;8.15;;;17.80;84.70;;;;;;4970299;28;20205;-70
2021/03/30 09:44:32;;;;;;;14.38;8.63;;;17.80;85.00;;;;;;4971194;28;20267;-71
2021/03/30 09:46:59;;;;;;;13.77;10.30;;;17.80;84.70;;;;;;4981458;28;20517;-71
2021/03/30 09:49:26;;;;;;;11.27;9.25;;;17.80;82.90;;;;;;4980962;28;20220;-71
2021/03/30 09:51:54;;;;;;;12.85;9.40;;;17.80;83.40;;;;;;4971122;28;20742;-71
2021/03/30 09:54:23;;;;;;;14.45;9.65;;;17.70;83.80;;;;;;4970234;28;20633;-70
2021/03/30 09:56:58;;;;;;;13.65;9.98;;;17.70;84.10;;;;;;4987861;28;20212;-70
2021/03/30 09:59:25;;;;;;;17.95;11.65;;;17.70;84.00;;;;;;4976505;28;20201;-70
2021/03/30 10:01:52;;;;;;;11.68;8.25;;;17.70;81.60;;;;;;4968919;28;20202;-71
2021/03/30 10:04:22;;;;;;;12.35;9.05;;;17.60;82.40;;;;;;4978297;28;20235;-70
2021/03/30 10:06:48;;;;;;;12.73;8.88;;;17.60;81.70;;;;;;4971563;28;20201;-70
2021/03/30 10:09:14;;;;;;;10.25;7.53;;;17.60;82.70;;;;;;4981978;28;20216;-70
2021/03/30 10:11:40;;;;;;;12.68;7.82;;;17.60;82.20;;;;;;4970391;28;20991;-70
2021/03/30 10:14:24;;;;;;;12.57;7.75;;;17.50;82.80;;;;;;4986260;28;20212;-70
2021/03/30 10:16:52;;;;;;;14.20;9.25;;;17.50;83.90;;;;;;4976391;28;20206;-71
2021/03/30 10:19:20;;;;;;;16.27;9.50;;;17.50;82.70;;;;;;4969301;28;20201;-71
2021/03/30 10:21:51;;;;;;;12.70;8.70;;;17.50;81.20;;;;;;4976987;28;20653;-70
2021/03/30 10:24:18;;;;;;;12.80;9.02;;;17.50;80.70;;;;;;4977987;28;20229;-71
2021/03/30 10:27:04;;;;;;;13.18;8.05;;;17.50;79.90;;;;;;4978085;28;20206;-71
2021/03/30 10:29:32;;;;;;;15.68;8.75;;;17.50;79.40;;;;;;4970748;28;20752;-70
2021/03/30 10:32:06;;;;;;;12.82;7.93;;;17.50;79.60;;;;;;4969503;28;20229;-71
2021/03/30 10:34:34;;;;;;;12.80;8.35;;;17.50;80.60;;;;;;4969751;28;20201;-71
2021/03/30 10:37:03;;;;;;;12.95;7.85;;;17.50;77.30;;;;;;4978200;28;20204;-71
2021/03/30 10:39:31;;;;;;;17.98;7.82;;;17.50;77.70;;;;;;4984763;28;20201;-71
2021/03/30 10:42:03;;;;;;;12.90;7.53;;;17.50;78.80;;;;;;4988337;28;20204;-71
2021/03/30 10:44:35;;;;;;;12.48;7.60;;;17.40;78.10;;;;;;4974398;28;20695;-71
2021/03/30 10:47:16;;;;;;;10.70;7.30;;;17.50;77.70;;;;;;4974459;28;20205;-70
2021/03/30 10:49:44;;;;;;;15.30;9.55;;;17.40;76.80;;;;;;4969904;28;20204;-70
2021/03/30 10:52:16;;;;;;;12.40;7.30;;;17.50;78.50;;;;;;4976041;28;20308;-71
2021/03/30 10:54:43;;;;;;;12.23;7.40;;;17.40;76.40;;;;;;4974260;28;20206;-69
2021/03/30 10:57:13;;;;;;;15.30;7.97;;;17.40;76.80;;;;;;4977098;28;20305;-70
2021/03/30 10:59:40;;;;;;;10.35;7.32;;;17.50;76.10;;;;;;4968483;28;20266;-69
2021/03/30 11:02:06;;;;;;;9.50;6.45;;;17.40;76.70;;;;;;4971937;28;20197;-69
2021/03/30 11:04:32;;;;;;;9.73;6.95;;;17.40;75.70;;;;;;4969412;28;20676;-69
2021/03/30 11:07:00;;;;;;;11.20;7.47;;;17.40;75.40;;;;;;4975184;28;20303;-69
2021/03/30 11:09:26;;;;;;;12.32;7.28;;;17.40;76.10;;;;;;4971104;28;20262;-69
2021/03/30 11:11:53;;;;;;;13.40;7.75;;;17.40;75.50;;;;;;4988873;28;20541;-69
2021/03/30 11:14:20;;;;;;;16.88;8.25;;;17.40;75.60;;;;;;4972645;28;20201;-70
2021/03/30 11:16:46;;;;;;;15.40;8.82;;;17.50;75.40;;;;;;4985323;28;20201;-68
2021/03/30 11:19:13;;;;;;;12.77;7.80;;;17.50;74.90;;;;;;4975552;28;20189;-68
2021/03/30 11:21:40;;;;;;;10.70;7.15;;;17.50;74.30;;;;;;4970109;28;20212;-69
2021/03/30 11:24:11;;;;;;;12.07;7.38;;;17.40;73.80;;;;;;4969559;28;20233;-69
2021/03/30 11:26:39;;;;;;;7.78;5.85;;;17.50;73.80;;;;;;4978565;28;20228;-69
2021/03/30 11:29:08;;;;;;;9.90;7.07;;;17.40;73.90;;;;;;4975789;28;20204;-68
2021/03/30 11:31:53;;;;;;;7.30;5.97;;;17.40;73.70;;;;;;4987917;28;20669;-68
2021/03/30 11:34:24;;;;;;;10.25;6.90;;;17.50;73.80;;;;;;4976889;28;20989;-69
2021/03/30 11:36:54;;;;;;;14.45;7.35;;;17.40;72.30;;;;;;4983187;28;20220;-68
2021/03/30 11:39:21;;;;;;;11.88;8.30;;;17.50;72.40;;;;;;4971078;28;20251;-68
2021/03/30 11:41:47;;;;;;;9.50;6.95;;;17.50;72.60;;;;;;4969165;28;20246;-68
2021/03/30 11:44:13;;;;;;;13.85;8.27;;;17.50;73.30;;;;;;4977926;28;20205;-68
2021/03/30 11:46:39;;;;;;;8.65;6.00;;;17.50;73.10;;;;;;4988433;28;20201;-68
2021/03/30 11:49:05;;;;;;;13.27;8.18;;;17.50;73.40;;;;;;4988006;28;20225;-69
2021/03/30 11:51:32;;;;;;;12.50;7.78;;;17.50;73.40;;;;;;4986340;28;20590;-68
2021/03/30 11:53:59;;;;;;;9.60;6.95;;;17.50;72.80;;;;;;4988225;28;20254;-68
2021/03/30 11:56:26;;;;;;;9.93;6.65;;;17.50;73.30;;;;;;4975607;28;20236;-68
2021/03/30 11:58:52;;;;;;;9.43;6.88;;;17.50;73.00;;;;;;4974005;28;20198;-68
2021/03/30 12:01:18;;;;;;;10.05;7.53;;;17.50;72.00;;;;;;4968972;28;20193;-68
2021/03/30 12:03:44;;;;;;;12.30;7.78;;;17.50;72.90;;;;;;4972180;28;20196;-69
2021/03/30 12:06:10;;;;;;;12.85;8.00;;;17.50;72.30;;;;;;4982860;28;20223;-68
2021/03/30 12:08:37;;;;;;;13.40;8.02;;;17.50;72.70;;;;;;4975456;28;20262;-68
2021/03/30 12:11:03;;;;;;;10.30;7.00;;;17.50;72.60;;;;;;4988054;28;20216;-69
2021/03/30 12:13:30;;;;;;;11.55;7.88;;;17.50;72.20;;;;;;4975535;28;20197;-69
2021/03/30 12:15:57;;;;;;;10.75;6.75;;;17.50;72.50;;;;;;4986815;28;20205;-69
2021/03/30 12:18:23;;;;;;;13.25;7.82;;;17.50;72.10;;;;;;4986828;28;20219;-69
2021/03/30 12:20:49;;;;;;;14.40;7.13;;;17.50;72.60;;;;;;4986906;28;20201;-69
2021/03/30 12:23:16;;;;;;;10.20;7.07;;;17.50;71.60;;;;;;4975560;28;20241;-69
2021/03/30 12:25:42;;;;;;;13.98;7.75;;;17.50;71.10;;;;;;4977579;28;20557;-68
2021/03/30 12:28:08;;;;;;;13.20;8.32;;;17.50;71.00;;;;;;4985405;28;20201;-68
2021/03/30 12:30:36;;;;;;;10.38;6.60;;;17.50;71.10;;;;;;4981036;28;20213;-68
2021/03/30 12:33:02;;;;;;;10.60;7.72;;;17.50;71.40;;;;;;4985141;28;20249;-68
2021/03/30 12:35:28;;;;;;;9.48;7.32;;;17.50;70.90;;;;;;4972016;28;20939;-68
2021/03/30 12:37:55;;;;;;;13.30;8.25;;;17.50;70.80;;;;;;4982113;28;20651;-68
2021/03/30 12:40:21;;;;;;;9.65;6.70;;;17.50;71.60;;;;;;4981001;28;20201;-68
2021/03/30 12:42:48;;;;;;;11.45;6.90;;;17.50;70.30;;;;;;4973065;28;20529;-69
2021/03/30 12:45:15;;;;;;;12.55;7.32;;;17.50;70.90;;;;;;4981241;28;20641;-69
2021/03/30 12:47:42;;;;;;;13.45;7.63;;;17.50;70.80;;;;;;4970571;28;20213;-69
2021/03/30 12:50:10;;;;;;;11.57;8.23;;;17.40;69.80;;;;;;4973816;28;20197;-69
2021/03/30 12:52:36;;;;;;;13.65;8.20;;;17.50;69.60;;;;;;4977034;28;20248;-69
2021/03/30 12:55:06;;;;;;;10.52;7.03;;;17.50;70.00;;;;;;4988908;28;20679;-72
2021/03/30 12:57:32;;;;;;;13.48;8.48;;;17.50;68.90;;;;;;4979249;28;20216;-69
2021/03/30 12:59:59;;;;;;;14.75;7.45;;;17.50;68.90;;;;;;4974763;28;20208;-69